TFM - Tactical Decision Aid
ID: Runway Winds: CIG/VIS Threshold:

KCLT - Charlotte/Douglas In, NC, US

Updated at: 0729 UTC 18 Sep 2021
Latest TAF at: 0532 UTC 18 Sep 2021

TAF Board

Time0652Z 18/08Z 18/09Z 18/10Z 18/11Z 18/12Z 18/13Z 18/14Z 18/15Z 18/16Z 18/17Z 18/18Z 18/19Z 18/20Z>>
Type OBS PRVL PRVL PRVL
  [TEMP]  
PRVL
  [TEMP]  
PRVL PRVL PRVL PRVL PRVL PRVL PRVL PRVL PRVL
VIS 9 >6 >6 >6
  [3]  
>6
  [3]  
>6 >6 >6 >6 >6 >6 >6 >6 >6
CIG -- 60 60 45
  [8]  
45
  [8]  
45 60 60 60 70 70 70 70 70
Cover SCT BKN BKN BKN
  [BKN]  
BKN
  [BKN]  
BKN BKN BKN BKN BKN BKN BKN BKN BKN
FltCat VFR VFR VFR VFR
  [IFR]  
VFR
  [IFR]  
VFR VFR VFR VFR VFR VFR VFR VFR VFR
WX -- -- -- --
  [BR]  
--
  [BR]  
-- -- -- -- -- -- -- -- --
WDir 340 330 330 20
[20]
20
[20]
20 40 40 40 60 60 60 60 60
WSpd 5 4 4 4
  [4]  
4
  [4]  
4 3 3 3 3 3 3 3 3
WGst -- -- -- --
  [--]  
--
  [--]  
-- -- -- -- -- -- -- -- --

TDA Impact Legend

  None Marginal Slight Moderate High
Visibility (sm) >5 2.9≤X≤5 0.9≤X<2.9 <0.9
Ceiling (100 ft) >30 9.9≤X≤30 4.9≤X<9.9 <4.9
Wind Speed (kt) <15 15≤X<25 25≤X<30 ≥30
Wind Gust (kt) <15 15≤X<25 25≤X<35 ≥35
Weather No Wx Reported VCTS -TS,-FZRA TS,FZRA +TS,+FZRA
TAF
KCLT 180532Z 1806/1912 33004KT P6SM SCT035 BKN060
  FM181000 02004KT P6SM SCT008 BKN045
  TEMPO 1810/1812 3SM BR BKN008
  FM181300 04003KT P6SM SCT025 BKN060
  FM181600 06003KT P6SM SCT035 BKN070
  FM182300 VRB03KT P6SM SCT070 BKN150


METAR
KCLT 180652Z 34005KT 9SM SCT038 SCT060 21/19 A3014 RMK AO2 SLP197 T02060194
KCLT 180552Z 34004KT 10SM SCT038 22/20 A3014 RMK AO2 SLP198 T02170200 10256 20206 55004
KCLT 180452Z 33004KT 10SM FEW036 BKN055 22/21 A3014 RMK AO2 SLP196 T02170206 402940206

Radar Display
Forecast Discussion